Time;durP1;ratioP1;P1;durP2;ratioP2;P2;SDS_P1;SDS_P2;PMS_P1;PMS_P2;Temp;Humidity;BMP_temperature;BMP_pressure;BME280_temperature;BME280_humidity;BME280_pressure;Samples;Min_cycle;Max_cycle;Signal;HPM_P1;HPM_P2
2022/09/13 00:02:07;;;;;;;2.90;2.70;;;;;;;16.79;71.58;100141.19;5054684;28;20208;-76
2022/09/13 00:04:34;;;;;;;2.97;2.77;;;;;;;16.79;70.82;100176.31;5054425;28;20226;-76
2022/09/13 00:07:00;;;;;;;2.70;2.50;;;;;;;16.82;71.79;100184.09;5054305;28;20206;-75
2022/09/13 00:09:26;;;;;;;3.27;2.90;;;;;;;16.83;71.89;100167.34;5054374;28;20202;-76
2022/09/13 00:11:53;;;;;;;4.67;2.90;;;;;;;16.84;70.95;100210.38;5054240;28;20214;-76
2022/09/13 00:14:21;;;;;;;3.80;2.60;;;;;;;16.85;71.18;100197.13;5054192;28;20285;-76
2022/09/13 00:16:48;;;;;;;3.23;2.50;;;;;;;16.87;69.91;100197.91;5054046;28;20205;-76
2022/09/13 00:19:14;;;;;;;4.00;3.13;;;;;;;16.91;70.50;100219.72;5053910;28;20729;-76
2022/09/13 00:21:40;;;;;;;3.07;2.80;;;;;;;16.92;71.79;100173.09;5054219;28;20206;-76
2022/09/13 00:24:08;;;;;;;3.40;3.10;;;;;;;16.86;70.84;100148.72;5053983;28;20270;-76
2022/09/13 00:26:34;;;;;;;2.80;2.60;;;;;;;16.87;69.20;100211.09;5053672;28;20206;-76
2022/09/13 00:29:00;;;;;;;2.83;2.63;;;;;;;16.96;68.86;100253.75;5053777;28;20744;-76
2022/09/13 00:31:28;;;;;;;3.70;3.40;;;;;;;17.01;68.87;100267.59;5054000;28;20207;-76
2022/09/13 00:33:55;;;;;;;2.70;2.50;;;;;;;17.02;68.27;100285.09;5053820;28;20650;-76
2022/09/13 00:36:22;;;;;;;3.50;3.17;;;;;;;17.02;69.54;100262.22;5053723;28;20207;-76
2022/09/13 00:38:48;;;;;;;3.10;2.80;;;;;;;17.04;69.20;100268.25;5053738;28;20198;-75
2022/09/13 00:41:18;;;;;;;3.03;2.83;;;;;;;17.03;69.22;100256.03;5053511;28;20207;-76
2022/09/13 00:43:48;;;;;;;3.17;2.97;;;;;;;17.09;68.64;100281.25;5053793;28;20306;-76
2022/09/13 00:46:22;;;;;;;3.60;3.20;;;;;;;17.16;68.57;100301.09;5053444;28;20211;-75
2022/09/13 00:48:56;;;;;;;3.10;2.80;;;;;;;17.07;68.26;100273.41;5045716;28;20224;-76
2022/09/13 00:51:22;;;;;;;3.30;3.00;;;;;;;17.13;68.05;100284.59;5053602;28;20205;-76
2022/09/13 00:53:54;;;;;;;3.03;2.73;;;;;;;17.18;68.21;100278.16;5053189;28;20234;-76
2022/09/13 00:56:28;;;;;;;3.30;2.80;;;;;;;17.18;68.49;100280.78;5053368;28;20202;-76
2022/09/13 00:58:58;;;;;;;2.93;2.73;;;;;;;17.18;68.41;100282.56;5053751;28;20210;-76
2022/09/13 01:01:31;;;;;;;4.00;2.80;;;;;;;17.17;69.73;100238.69;5053355;28;20214;-76
2022/09/13 01:04:01;;;;;;;3.13;2.93;;;;;;;17.15;69.45;100214.16;5053361;28;20359;-76
2022/09/13 01:06:31;;;;;;;2.80;2.60;;;;;;;17.18;68.68;100212.19;5053038;28;20204;-76
2022/09/13 01:09:02;;;;;;;3.00;2.80;;;;;;;17.14;69.16;100208.00;5053385;28;20207;-76
2022/09/13 01:11:34;;;;;;;3.37;2.87;;;;;;;17.11;69.04;100223.16;5053048;28;20301;-76
2022/09/13 01:14:00;;;;;;;3.10;2.80;;;;;;;17.16;69.37;100186.84;5053086;28;20234;-76
2022/09/13 01:16:27;;;;;;;3.10;2.90;;;;;;;17.16;68.11;100223.75;5052702;28;20210;-76
2022/09/13 01:18:53;;;;;;;3.40;3.10;;;;;;;17.20;67.79;100239.34;5052804;28;20211;-75
2022/09/13 01:21:48;;;;;;;5.83;3.27;;;;;;;17.21;69.43;100193.59;5053115;28;20277;-76
2022/09/13 01:24:42;;;;;;;2.90;2.70;;;;;;;17.20;68.34;100194.50;5052947;28;20288;-76
2022/09/13 01:27:21;;;;;;;3.60;3.30;;;;;;;17.23;67.41;100219.91;5052835;28;20206;-75
2022/09/13 01:30:06;;;;;;;3.13;2.83;;;;;;;17.32;68.10;100224.69;5052732;28;20216;-76
2022/09/13 01:32:43;;;;;;;4.00;3.70;;;;;;;17.25;70.12;100163.50;5052852;28;20734;-76
2022/09/13 01:35:22;;;;;;;4.13;3.73;;;;;;;17.23;69.72;100146.03;5052374;28;20695;-76
2022/09/13 01:37:54;;;;;;;3.57;3.27;;;;;;;17.25;68.96;100155.56;5052894;28;20215;-75
2022/09/13 01:40:38;;;;;;;3.23;2.93;;;;;;;17.29;69.24;100135.16;5052755;28;20618;-76
2022/09/13 01:43:33;;;;;;;7.23;4.33;;;;;;;17.27;67.84;100180.09;5052663;28;20682;-76
2022/09/13 01:46:05;;;;;;;3.90;3.60;;;;;;;17.27;69.23;100163.41;5041480;28;20630;-75
2022/09/13 01:48:44;;;;;;;3.70;3.40;;;;;;;17.26;70.08;100123.00;5052444;28;20208;-76
2022/09/13 01:51:18;;;;;;;3.37;3.07;;;;;;;17.22;69.73;100123.22;5052123;28;20202;-76
2022/09/13 01:53:52;;;;;;;3.77;3.47;;;;;;;17.24;69.37;100138.06;5052244;28;20231;-76
2022/09/13 01:56:23;;;;;;;3.37;2.93;;;;;;;17.22;70.19;100099.47;5052024;28;20215;-77
2022/09/13 01:58:56;;;;;;;3.43;3.20;;;;;;;17.19;69.06;100104.94;5052586;28;20270;-76
2022/09/13 02:01:29;;;;;;;3.47;3.17;;;;;;;17.21;68.80;100135.56;5052236;28;20710;-76
2022/09/13 02:04:00;;;;;;;3.23;3.03;;;;;;;17.35;69.20;100144.56;5052227;28;20229;-77
2022/09/13 02:06:32;;;;;;;3.70;3.50;;;;;;;17.36;68.69;100155.03;5052097;28;20202;-76
2022/09/13 02:09:03;;;;;;;3.80;3.40;;;;;;;17.40;69.36;100126.69;5052174;28;20334;-76
2022/09/13 02:11:31;;;;;;;4.40;3.40;;;;;;;17.40;69.54;100118.78;5052132;28;20212;-76
2022/09/13 02:14:05;;;;;;;3.73;3.43;;;;;;;17.39;69.22;100120.56;5051828;28;20709;-76
2022/09/13 02:16:37;;;;;;;3.97;3.67;;;;;;;17.45;68.88;100122.03;5051629;28;20597;-76
2022/09/13 02:19:12;;;;;;;3.70;3.40;;;;;;;17.47;68.67;100125.44;5051924;28;20205;-75
2022/09/13 02:21:43;;;;;;;3.80;3.50;;;;;;;17.48;68.43;100121.84;5052163;28;20259;-76
2022/09/13 02:24:13;;;;;;;3.57;3.27;;;;;;;17.47;69.17;100112.25;5051847;28;20224;-76
2022/09/13 02:26:44;;;;;;;4.10;3.73;;;;;;;17.49;70.45;100088.41;5051929;28;20269;-76
2022/09/13 02:29:15;;;;;;;3.77;3.37;;;;;;;17.47;68.94;100102.53;5051770;28;20700;-76
2022/09/13 02:31:47;;;;;;;3.80;3.50;;;;;;;17.47;68.46;100128.94;5051676;28;20731;-76
2022/09/13 02:34:20;;;;;;;3.37;3.13;;;;;;;17.52;67.98;100156.84;5051957;28;20232;-76
2022/09/13 02:36:49;;;;;;;4.20;3.90;;;;;;;17.56;68.99;100145.19;5051765;28;20614;-76
2022/09/13 02:39:17;;;;;;;3.77;3.47;;;;;;;17.56;69.14;100116.16;5051886;28;20269;-77
2022/09/13 02:41:51;;;;;;;3.60;3.40;;;;;;;17.63;71.23;100068.25;5051776;28;20211;-76
2022/09/13 02:44:25;;;;;;;3.80;3.50;;;;;;;17.52;71.07;100027.53;5051441;28;20220;-76
2022/09/13 02:47:05;;;;;;;4.00;3.70;;;;;;;17.52;72.39;100051.28;5051683;28;20203;-76
2022/09/13 02:49:42;;;;;;;4.03;3.73;;;;;;;17.52;71.53;100046.00;5051795;28;20212;-77
2022/09/13 02:52:18;;;;;;;4.00;3.70;;;;;;;17.49;73.05;100014.53;5051843;28;20264;-76
2022/09/13 02:54:53;;;;;;;3.50;3.30;;;;;;;17.51;72.70;100020.56;5051376;28;20235;-76
2022/09/13 02:57:25;;;;;;;3.83;3.53;;;;;;;17.49;70.97;100048.84;5051882;28;20205;-76
2022/09/13 02:59:52;;;;;;;3.53;3.33;;;;;;;17.52;71.66;100054.81;5051869;28;20211;-77
2022/09/13 03:02:25;;;;;;;3.87;3.67;;;;;;;17.56;71.85;100045.78;5052848;28;20255;-76
2022/09/13 03:04:51;;;;;;;3.97;3.67;;;;;;;17.41;70.82;100081.75;5055380;28;20280;-76
2022/09/13 03:07:18;;;;;;;3.83;3.63;;;;;;;17.45;72.29;100069.25;5055410;28;20225;-76
2022/09/13 03:09:49;;;;;;;4.10;3.80;;;;;;;17.47;73.33;100033.94;5055616;28;20212;-77
2022/09/13 03:12:32;;;;;;;3.93;3.63;;;;;;;17.40;73.56;100005.31;5055380;28;20873;-76
2022/09/13 03:15:07;;;;;;;4.80;4.40;;;;;;;17.40;73.78;100000.91;5055047;28;20232;-76
2022/09/13 03:17:47;;;;;;;3.97;3.67;;;;;;;17.43;73.82;100019.19;5055465;28;20207;-76
2022/09/13 03:20:21;;;;;;;4.07;3.77;;;;;;;17.47;75.03;99964.47;5055717;28;20212;-77
2022/09/13 03:23:13;;;;;;;4.60;4.20;;;;;;;17.45;76.30;99932.88;5055343;28;20205;-77
2022/09/13 03:26:00;;;;;;;4.10;3.77;;;;;;;17.44;78.18;99869.63;5054985;28;20233;-76
2022/09/13 03:28:37;;;;;;;4.07;3.73;;;;;;;17.41;79.51;99822.34;5055039;28;20228;-76
2022/09/13 03:31:09;;;;;;;4.60;4.20;;;;;;;17.38;80.01;99794.34;5055078;28;20747;-77
2022/09/13 03:33:44;;;;;;;4.10;3.70;;;;;;;17.31;80.61;99773.69;5055051;28;20232;-76
2022/09/13 03:36:15;;;;;;;4.23;3.97;;;;;;;17.22;81.12;99768.00;5054708;28;20257;-76
2022/09/13 03:38:47;;;;;;;4.27;3.97;;;;;;;17.24;81.34;99770.53;5055173;28;20209;-77
2022/09/13 03:41:17;;;;;;;3.80;3.57;;;;;;;17.23;81.64;99766.22;5054950;28;20208;-76
2022/09/13 03:43:48;;;;;;;4.23;3.83;;;;;;;17.26;81.82;99760.72;5054837;28;20710;-76
2022/09/13 03:46:19;;;;;;;4.17;3.87;;;;;;;17.27;80.52;99779.13;5054543;28;20265;-77
2022/09/13 03:48:47;;;;;;;4.50;4.20;;;;;;;17.23;80.70;99801.34;5054571;28;20203;-77
2022/09/13 03:51:15;;;;;;;4.63;4.23;;;;;;;17.26;81.32;99788.00;5054934;28;20256;-76
2022/09/13 03:53:50;;;;;;;4.03;3.77;;;;;;;17.20;82.12;99776.91;5054587;28;20264;-76
2022/09/13 03:56:18;;;;;;;5.03;4.73;;;;;;;17.20;82.67;99761.94;5054360;28;20718;-76
2022/09/13 03:58:45;;;;;;;3.93;3.63;;;;;;;17.16;83.86;99760.41;5055029;28;20216;-77
2022/09/13 04:01:12;;;;;;;4.43;4.13;;;;;;;17.15;82.06;99773.72;5054394;28;20231;-76
2022/09/13 04:03:39;;;;;;;4.30;3.90;;;;;;;17.14;80.47;99820.31;5054588;28;20207;-76
2022/09/13 04:06:07;;;;;;;4.77;4.47;;;;;;;17.11;82.43;99807.31;5054562;28;20207;-76
2022/09/13 04:08:34;;;;;;;4.50;4.10;;;;;;;17.07;82.66;99774.97;5054440;28;20252;-77
2022/09/13 04:11:01;;;;;;;4.80;4.40;;;;;;;17.09;83.51;99759.09;5054490;28;20218;-76
2022/09/13 04:13:28;;;;;;;5.07;4.57;;;;;;;17.02;83.82;99736.63;5053958;28;20203;-76
2022/09/13 04:15:54;;;;;;;4.07;3.77;;;;;;;17.03;84.18;99736.53;5053649;28;20227;-76
2022/09/13 04:18:21;;;;;;;4.47;4.20;;;;;;;17.02;84.60;99733.97;5054137;28;20205;-76
2022/09/13 04:20:54;;;;;;;4.33;3.93;;;;;;;17.02;84.38;99732.19;5054339;28;20252;-76
2022/09/13 04:23:22;;;;;;;4.67;4.30;;;;;;;16.98;84.77;99724.56;5054037;28;20672;-77
2022/09/13 04:25:50;;;;;;;4.87;4.57;;;;;;;16.98;84.74;99728.03;5053838;28;20672;-76
2022/09/13 04:28:18;;;;;;;4.00;3.70;;;;;;;16.95;85.19;99728.22;5054119;28;20218;-76
2022/09/13 04:30:45;;;;;;;5.20;4.67;;;;;;;16.94;84.86;99752.03;5054071;28;20207;-76
2022/09/13 04:33:11;;;;;;;4.47;3.97;;;;;;;16.95;85.19;99746.69;5054127;28;20210;-76
2022/09/13 04:35:38;;;;;;;4.90;4.50;;;;;;;16.91;85.67;99731.09;5053477;28;20644;-76
2022/09/13 04:38:04;;;;;;;5.20;4.80;;;;;;;16.88;84.94;99771.69;5053426;28;20295;-76
2022/09/13 04:40:33;;;;;;;4.73;4.20;;;;;;;16.90;85.78;99761.88;5052592;28;20211;-76
2022/09/13 04:43:00;;;;;;;4.23;3.97;;;;;;;16.91;86.34;99757.47;5053547;28;20260;-76
2022/09/13 04:45:26;;;;;;;4.73;4.33;;;;;;;16.93;86.18;99745.06;5052467;28;20263;-77
2022/09/13 04:47:53;;;;;;;4.37;4.07;;;;;;;16.88;86.87;99734.75;5053490;28;20644;-76
2022/09/13 04:50:21;;;;;;;4.60;4.23;;;;;;;16.91;86.74;99741.66;5053262;28;20202;-76
2022/09/13 04:52:47;;;;;;;4.67;4.27;;;;;;;16.93;86.67;99747.72;5053760;28;20261;-76
2022/09/13 04:55:14;;;;;;;4.80;4.47;;;;;;;16.89;86.61;99752.31;5052991;28;20644;-76
2022/09/13 04:57:42;;;;;;;4.83;4.40;;;;;;;16.86;86.47;99745.38;5053409;28;20215;-76
2022/09/13 05:00:09;;;;;;;4.70;4.30;;;;;;;16.85;86.45;99759.53;5053014;28;20207;-76
2022/09/13 05:02:36;;;;;;;5.07;4.73;;;;;;;16.83;86.81;99758.75;5053354;28;20212;-76
2022/09/13 05:05:02;;;;;;;4.97;4.43;;;;;;;16.81;87.03;99750.09;5053093;28;20272;-77
2022/09/13 05:07:29;;;;;;;4.90;4.50;;;;;;;16.75;87.56;99736.34;5053190;28;20206;-76
2022/09/13 05:09:55;;;;;;;4.27;3.97;;;;;;;16.78;85.84;99775.72;5053141;28;20266;-76
2022/09/13 05:12:22;;;;;;;4.67;4.27;;;;;;;16.82;85.43;99787.84;5053026;28;20209;-76
2022/09/13 05:14:49;;;;;;;4.40;4.10;;;;;;;16.77;86.28;99777.53;5052627;28;20225;-76
2022/09/13 05:17:16;;;;;;;4.67;4.30;;;;;;;16.78;86.34;99773.09;5052729;28;20650;-76
2022/09/13 05:19:42;;;;;;;4.40;3.93;;;;;;;16.71;85.01;99816.53;5052904;28;20200;-76
2022/09/13 05:22:09;;;;;;;4.53;3.50;;;;;;;16.78;83.40;99857.44;5052786;28;20731;-76
2022/09/13 05:24:35;;;;;;;4.30;4.00;;;;;;;16.80;82.70;99914.41;5052187;28;20227;-76
2022/09/13 05:27:01;;;;;;;10.33;5.00;;;;;;;16.86;80.20;99960.72;5052974;28;20210;-76
2022/09/13 05:29:28;;;;;;;5.03;4.43;;;;;;;16.94;79.54;100007.78;5052909;28;20220;-77
2022/09/13 05:31:55;;;;;;;4.17;3.93;;;;;;;17.02;80.11;100001.16;5052686;28;20211;-77
2022/09/13 05:34:22;;;;;;;3.60;3.40;;;;;;;16.98;80.25;99960.06;5052762;28;20223;-77
2022/09/13 05:36:49;;;;;;;4.10;3.80;;;;;;;16.99;78.09;100022.41;5052369;28;20215;-76
2022/09/13 05:39:17;;;;;;;3.87;3.57;;;;;;;16.99;80.73;99977.59;5053246;28;20211;-76
2022/09/13 05:41:44;;;;;;;4.73;4.03;;;;;;;17.04;81.73;99936.00;5052167;28;20553;-75
2022/09/13 05:44:10;;;;;;;3.97;3.67;;;;;;;17.07;80.22;99959.56;5052322;28;20234;-76
2022/09/13 05:46:37;;;;;;;4.20;3.90;;;;;;;17.09;80.14;99967.41;5052236;28;20215;-76
2022/09/13 05:49:05;;;;;;;4.17;3.73;;;;;;;17.19;77.76;100034.56;5052131;28;20663;-76
2022/09/13 05:51:31;;;;;;;4.70;4.40;;;;;;;17.20;77.22;100059.13;5052215;28;20214;-76
2022/09/13 05:53:58;;;;;;;4.13;3.80;;;;;;;17.22;76.37;100096.84;5052362;28;20227;-74
2022/09/13 05:56:27;;;;;;;4.20;3.90;;;;;;;17.30;77.34;100075.34;5052196;28;20235;-75
2022/09/13 05:58:54;;;;;;;4.20;3.90;;;;;;;17.35;76.42;100097.06;5052495;28;20261;-74
2022/09/13 06:01:22;;;;;;;3.90;3.53;;;;;;;17.42;77.14;100080.84;5052235;28;20212;-75
2022/09/13 06:03:49;;;;;;;4.27;3.93;;;;;;;17.44;76.80;100078.97;5052144;28;20377;-75
2022/09/13 06:06:18;;;;;;;4.30;3.90;;;;;;;17.46;76.67;100078.84;5051896;28;20252;-75
2022/09/13 06:08:44;;;;;;;4.30;3.90;;;;;;;17.49;75.09;100117.44;5052010;28;20215;-75
2022/09/13 06:11:13;;;;;;;4.23;3.93;;;;;;;17.56;76.56;100095.94;5051971;28;20207;-75
2022/09/13 06:13:40;;;;;;;4.63;4.20;;;;;;;17.56;76.79;100076.59;5052069;28;20464;-75
2022/09/13 06:16:09;;;;;;;4.83;4.13;;;;;;;17.51;77.54;100049.59;5051638;28;20239;-75
2022/09/13 06:18:36;;;;;;;4.33;3.97;;;;;;;17.59;78.03;100011.28;5051765;28;20253;-75
2022/09/13 06:21:04;;;;;;;4.63;4.23;;;;;;;17.66;80.09;99953.75;5051793;28;20758;-75
2022/09/13 06:23:32;;;;;;;4.73;3.87;;;;;;;17.63;81.90;99878.22;5051614;28;20207;-74
2022/09/13 06:26:03;;;;;;;4.90;4.60;;;;;;;17.66;82.08;99846.38;5051765;28;20204;-75
2022/09/13 06:28:30;;;;;;;4.17;3.87;;;;;;;17.62;81.67;99879.16;5051687;28;20216;-75
2022/09/13 06:31:01;;;;;;;3.50;3.30;;;;;;;17.59;81.32;99875.84;5051550;28;20754;-75
2022/09/13 06:33:27;;;;;;;4.30;4.00;;;;;;;17.51;78.95;99889.47;5049261;28;20212;-74
2022/09/13 06:35:54;;;;;;;4.10;3.80;;;;;;;17.55;80.01;99940.31;5042914;28;20227;-75
2022/09/13 06:38:20;;;;;;;3.93;3.63;;;;;;;17.58;82.32;99890.84;5046671;28;20227;-75
2022/09/13 06:40:48;;;;;;;3.93;3.63;;;;;;;17.59;82.91;99836.25;5053277;28;20840;-77
2022/09/13 06:43:40;;;;;;;4.10;3.80;;;;;;;17.59;78.31;99969.06;5050276;28;20211;-84
2022/09/13 06:46:10;;;;;;;5.50;4.00;;;;;;;17.66;82.19;99864.84;5051995;28;20213;-85
2022/09/13 06:48:40;;;;;;;4.03;3.73;;;;;;;17.73;80.87;99877.69;5050496;28;20202;-85
2022/09/13 06:51:10;;;;;;;3.73;3.43;;;;;;;17.79;78.59;99948.63;5052676;28;20270;-85
2022/09/13 06:53:37;;;;;;;4.27;3.63;;;;;;;17.83;76.45;100043.44;5049127;28;20612;-84
2022/09/13 06:56:08;;;;;;;5.93;4.10;;;;;;;17.94;76.41;100053.41;5048425;28;20694;-83
2022/09/13 06:58:35;;;;;;;4.10;3.90;;;;;;;18.01;75.31;100090.88;5051389;28;20211;-82
2022/09/13 07:01:11;;;;;;;3.80;3.50;;;;;;;18.02;76.25;100066.19;5051526;28;20629;-82
2022/09/13 07:03:39;;;;;;;4.17;3.77;;;;;;;18.11;75.95;100084.16;5051998;28;20619;-82
2022/09/13 07:06:14;;;;;;;3.83;3.50;;;;;;;18.10;74.77;100124.72;5049444;28;20205;-83
2022/09/13 07:08:41;;;;;;;4.00;3.67;;;;;;;18.18;75.04;100117.22;5047853;28;20219;-84
2022/09/13 07:11:11;;;;;;;4.10;3.80;;;;;;;18.28;75.89;100116.72;5050526;28;20205;-82
2022/09/13 07:13:38;;;;;;;3.90;3.60;;;;;;;18.25;74.26;100133.56;5048260;28;20200;-82
2022/09/13 07:16:06;;;;;;;5.40;3.67;;;;;;;18.25;74.61;100117.72;5050930;28;20223;-82
2022/09/13 07:18:33;;;;;;;4.20;3.90;;;;;;;18.20;72.28;100168.19;5056572;28;20273;-82
2022/09/13 07:21:02;;;;;;;4.00;3.70;;;;;;;18.16;71.67;100200.16;5050076;28;20204;-83
2022/09/13 07:23:29;;;;;;;3.93;3.57;;;;;;;18.23;72.85;100193.56;5049313;28;20286;-75
2022/09/13 07:26:00;;;;;;;3.97;3.67;;;;;;;18.23;72.83;100193.56;5043148;28;20237;-75
2022/09/13 07:28:29;;;;;;;4.30;3.83;;;;;;;18.32;72.57;100187.78;5037768;28;20219;-75
2022/09/13 07:30:58;;;;;;;3.70;3.50;;;;;;;18.33;72.32;100205.34;5038099;28;20299;-75
2022/09/13 07:33:25;;;;;;;3.80;3.60;;;;;;;18.38;72.92;100174.25;5040418;28;20232;-75
2022/09/13 07:35:55;;;;;;;4.47;4.13;;;;;;;18.49;72.68;100184.19;5037466;28;20678;-75
2022/09/13 07:38:21;;;;;;;3.77;3.47;;;;;;;18.48;71.70;100206.31;5037381;28;20209;-75
2022/09/13 07:40:53;;;;;;;3.93;3.63;;;;;;;18.50;72.20;100198.28;5037961;28;20271;-75
2022/09/13 07:43:19;;;;;;;4.17;3.87;;;;;;;18.55;72.92;100175.06;5039244;28;20231;-75
2022/09/13 07:45:47;;;;;;;4.13;3.83;;;;;;;18.50;71.90;100196.50;5048710;28;20743;-75
2022/09/13 07:48:13;;;;;;;4.87;3.83;;;;;;;18.52;71.94;100205.19;5049468;28;20205;-75
2022/09/13 07:50:40;;;;;;;7.67;4.13;;;;;;;18.54;72.04;100207.75;5045815;28;20203;-75
2022/09/13 07:53:07;;;;;;;4.20;3.80;;;;;;;18.50;72.01;100206.22;5044640;28;20264;-75
2022/09/13 07:55:33;;;;;;;5.93;4.00;;;;;;;18.45;72.09;100202.03;5042688;28;20221;-75
2022/09/13 07:57:59;;;;;;;3.83;3.53;;;;;;;18.51;72.03;100205.28;5045801;28;20207;-74
2022/09/13 08:00:26;;;;;;;4.40;4.10;;;;;;;18.46;72.01;100200.25;5044642;28;20259;-76
2022/09/13 08:02:54;;;;;;;4.43;4.13;;;;;;;18.41;72.15;100195.22;5043395;28;20209;-76
2022/09/13 08:05:20;;;;;;;3.83;3.53;;;;;;;18.47;72.84;100170.22;5043423;28;20221;-75
2022/09/13 08:07:47;;;;;;;4.60;4.30;;;;;;;18.50;72.82;100162.13;5045065;28;20209;-76
2022/09/13 08:10:13;;;;;;;4.47;4.07;;;;;;;18.56;72.65;100168.88;5042325;28;20202;-75
2022/09/13 08:12:40;;;;;;;4.23;3.93;;;;;;;18.56;72.27;100174.16;5041822;28;20204;-75
2022/09/13 08:15:07;;;;;;;4.00;3.80;;;;;;;18.64;72.48;100179.84;5046415;28;20229;-77
2022/09/13 08:17:33;;;;;;;4.73;4.43;;;;;;;18.56;71.73;100190.00;5050911;28;20229;-76
2022/09/13 08:20:02;;;;;;;4.10;3.80;;;;;;;18.58;72.11;100190.78;5047227;28;20209;-76
2022/09/13 08:22:29;;;;;;;4.50;4.20;;;;;;;18.49;71.93;100188.66;5044820;28;20210;-75
2022/09/13 08:24:55;;;;;;;4.40;4.10;;;;;;;18.45;72.44;100187.94;5042880;28;20228;-75
2022/09/13 08:27:22;;;;;;;6.03;4.50;;;;;;;18.60;72.92;100170.41;5043164;28;20198;-75
2022/09/13 08:29:48;;;;;;;4.27;3.97;;;;;;;18.71;73.52;100151.25;5044377;28;20327;-75
2022/09/13 08:32:15;;;;;;;5.90;4.07;;;;;;;18.76;72.93;100163.28;5044161;28;20205;-75
2022/09/13 08:34:41;;;;;;;5.10;4.57;;;;;;;18.75;72.52;100177.47;5036452;28;20299;-75
2022/09/13 08:37:10;;;;;;;3.97;3.67;;;;;;;18.75;72.57;100181.88;5033752;28;20286;-75
2022/09/13 08:39:37;;;;;;;4.13;3.83;;;;;;;18.76;72.20;100204.75;5033559;28;20642;-75
2022/09/13 08:42:13;;;;;;;4.47;4.10;;;;;;;18.74;72.05;100204.00;5033711;28;20252;-76
2022/09/13 08:44:45;;;;;;;4.80;4.17;;;;;;;18.81;72.63;100190.38;5033341;28;20229;-77
2022/09/13 08:47:30;;;;;;;4.07;3.77;;;;;;;18.83;73.03;100177.06;5048636;28;20212;-77
2022/09/13 08:50:05;;;;;;;4.03;3.73;;;;;;;18.92;72.89;100167.72;5046474;28;20205;-77
2022/09/13 08:52:35;;;;;;;4.67;4.30;;;;;;;19.00;73.07;100153.09;5053428;28;20216;-76
2022/09/13 08:55:18;;;;;;;4.90;4.50;;;;;;;19.11;72.86;100162.19;5052949;28;20232;-76
2022/09/13 08:57:51;;;;;;;4.17;3.87;;;;;;;19.04;71.13;100212.81;5053067;28;20224;-76
2022/09/13 09:00:23;;;;;;;4.57;4.27;;;;;;;18.95;71.47;100218.66;5052094;28;20211;-76
2022/09/13 09:03:02;;;;;;;4.40;4.10;;;;;;;18.91;71.54;100209.19;5053253;28;20213;-76
2022/09/13 09:05:31;;;;;;;4.57;4.17;;;;;;;18.91;71.72;100222.44;5052640;28;20633;-76
2022/09/13 09:08:02;;;;;;;5.10;4.63;;;;;;;18.93;73.08;100188.81;5052775;28;20209;-76
2022/09/13 09:10:32;;;;;;;5.03;4.63;;;;;;;19.02;72.17;100182.13;5053012;28;20212;-76
2022/09/13 09:13:06;;;;;;;5.17;4.33;;;;;;;19.17;72.05;100186.53;5053106;28;20208;-76
2022/09/13 09:15:39;;;;;;;4.40;4.10;;;;;;;19.16;72.46;100178.66;5052362;28;20229;-76
2022/09/13 09:18:12;;;;;;;4.70;4.30;;;;;;;19.16;71.52;100178.66;5052806;28;20205;-76
2022/09/13 09:20:42;;;;;;;5.20;4.80;;;;;;;19.06;72.01;100204.81;5052550;28;20205;-76
2022/09/13 09:23:17;;;;;;;4.70;4.30;;;;;;;19.08;71.67;100205.56;5052674;28;20211;-76
2022/09/13 09:25:43;;;;;;;4.90;4.50;;;;;;;19.19;73.76;100128.22;5052376;28;20228;-76
2022/09/13 09:28:13;;;;;;;4.90;4.60;;;;;;;19.03;73.80;100130.94;5049641;28;20218;-77
2022/09/13 09:30:45;;;;;;;5.90;4.67;;;;;;;19.11;74.37;100096.06;5043183;28;20589;-76
2022/09/13 09:33:40;;;;;;;5.20;4.83;;;;;;;19.14;74.76;100086.13;5043290;28;20714;-76
2022/09/13 09:36:16;;;;;;;4.90;4.50;;;;;;;18.98;74.93;100072.97;5041859;28;20226;-76
2022/09/13 09:38:44;;;;;;;5.60;5.23;;;;;;;18.84;76.50;100046.50;5043284;28;20526;-75
2022/09/13 09:41:17;;;;;;;6.20;5.80;;;;;;;18.43;79.02;99959.91;5042358;28;20288;-75
2022/09/13 09:43:48;;;;;;;6.90;6.20;;;;;;;18.60;79.85;99900.75;5041474;28;20224;-76
2022/09/13 09:46:16;;;;;;;7.40;6.90;;;;;;;18.38;81.44;99870.34;5045152;28;20212;-76
2022/09/13 09:48:48;;;;;;;7.90;7.10;;;;;;;18.63;80.80;99864.41;5049552;28;20200;-76
2022/09/13 09:51:17;;;;;;;6.70;6.20;;;;;;;18.42;82.05;99850.72;5049441;28;20234;-75
2022/09/13 09:53:49;;;;;;;7.87;7.07;;;;;;;18.35;82.42;99832.66;5042611;28;20217;-76
2022/09/13 09:56:22;;;;;;;7.57;6.97;;;;;;;18.31;82.47;99834.66;5042693;28;20251;-76
2022/09/13 09:58:49;;;;;;;7.00;6.40;;;;;;;18.42;82.73;99826.09;5041983;28;20201;-76
2022/09/13 10:01:20;;;;;;;7.90;7.30;;;;;;;18.51;81.98;99845.78;5040736;28;20233;-76
2022/09/13 10:03:58;;;;;;;8.47;7.83;;;;;;;18.58;81.64;99857.69;5041372;28;20706;-76
2022/09/13 10:06:28;;;;;;;7.80;6.57;;;;;;;18.68;81.11;99893.19;5042306;28;20577;-76
2022/09/13 10:09:00;;;;;;;8.10;7.40;;;;;;;18.53;80.56;99913.50;5042651;28;20291;-76
2022/09/13 10:11:42;;;;;;;8.00;7.40;;;;;;;18.65;80.91;99923.31;5031787;28;20216;-76
2022/09/13 10:14:27;;;;;;;7.47;6.83;;;;;;;18.63;80.94;99926.97;5031893;28;20283;-75
2022/09/13 10:17:03;;;;;;;7.40;6.90;;;;;;;18.60;80.88;99922.75;5032088;28;20240;-76
2022/09/13 10:19:30;;;;;;;7.30;6.70;;;;;;;18.64;81.77;99900.47;5041682;28;20209;-76
2022/09/13 10:22:05;;;;;;;7.10;6.50;;;;;;;18.74;82.36;99887.53;5048206;28;20207;-76
2022/09/13 10:24:33;;;;;;;8.13;6.90;;;;;;;18.72;83.27;99870.06;5042198;28;20227;-76
2022/09/13 10:27:00;;;;;;;7.97;7.37;;;;;;;18.78;82.99;99854.66;5050825;28;20230;-76
2022/09/13 10:29:28;;;;;;;8.10;7.40;;;;;;;18.89;82.46;99867.25;5051605;28;20216;-76
2022/09/13 10:31:56;;;;;;;6.83;6.33;;;;;;;18.89;82.15;99882.25;5051723;28;20215;-76
2022/09/13 10:34:26;;;;;;;7.90;7.10;;;;;;;19.00;81.43;99898.31;5051763;28;20238;-76
2022/09/13 10:36:57;;;;;;;7.70;7.00;;;;;;;18.94;80.66;99930.44;5051170;28;20227;-76
2022/09/13 10:39:25;;;;;;;7.93;7.23;;;;;;;18.89;80.52;99929.88;5051661;28;20212;-76
2022/09/13 10:41:56;;;;;;;10.93;7.53;;;;;;;18.94;80.76;99933.09;5051150;28;20212;-75
2022/09/13 10:44:28;;;;;;;8.33;7.63;;;;;;;18.98;80.61;99932.78;5051752;28;20281;-76
2022/09/13 10:46:56;;;;;;;8.67;7.97;;;;;;;18.95;80.78;99938.28;5049999;28;20600;-76
2022/09/13 10:49:40;;;;;;;9.40;8.70;;;;;;;18.81;80.82;99936.50;5051472;28;20307;-76
2022/09/13 10:52:29;;;;;;;9.70;8.87;;;;;;;18.96;81.46;99905.59;5051271;28;20258;-76
2022/09/13 10:55:14;;;;;;;9.23;8.37;;;;;;;19.15;81.07;99913.22;5051413;28;20290;-77
2022/09/13 10:57:42;;;;;;;11.63;10.63;;;;;;;19.24;80.89;99931.16;5051161;28;20285;-76
2022/09/13 11:00:12;;;;;;;10.37;9.57;;;;;;;19.13;79.60;99960.09;5051477;28;20243;-76
2022/09/13 11:02:52;;;;;;;10.27;9.47;;;;;;;19.41;78.50;99990.13;5051107;28;20213;-77
2022/09/13 11:05:24;;;;;;;9.17;8.43;;;;;;;19.69;76.96;100039.53;5051677;28;20228;-77
2022/09/13 11:08:21;;;;;;;10.37;9.57;;;;;;;19.76;76.46;100077.09;5051767;28;20671;-75
2022/09/13 11:11:01;;;;;;;8.87;8.17;;;;;;;19.83;76.88;100073.97;5051232;28;20259;-76
2022/09/13 11:13:40;;;;;;;9.63;8.70;;;;;;;19.65;76.40;100067.16;5051488;28;20235;-75
2022/09/13 11:16:22;;;;;;;9.10;8.47;;;;;;;19.57;76.42;100080.88;5051542;28;20204;-78
2022/09/13 11:19:01;;;;;;;9.53;8.83;;;;;;;19.48;77.59;100057.59;5043426;28;20201;-75
2022/09/13 11:21:45;;;;;;;9.10;8.17;;;;;;;19.36;78.75;100002.78;5051167;28;20217;-75
2022/09/13 11:24:45;;;;;;;9.30;8.50;;;;;;;19.52;78.65;99986.78;5053820;28;20236;-77
2022/09/13 11:27:21;;;;;;;9.03;8.23;;;;;;;19.60;78.92;99984.50;5055340;28;20259;-76
2022/09/13 11:30:08;;;;;;;9.43;8.70;;;;;;;19.61;79.13;99962.38;5054493;28;20266;-75
2022/09/13 11:33:04;;;;;;;9.27;8.47;;;;;;;19.60;79.25;99956.25;5054989;28;20222;-76
2022/09/13 11:35:41;;;;;;;8.20;7.60;;;;;;;19.77;78.62;99962.28;5054678;28;20240;-76
2022/09/13 11:38:23;;;;;;;7.63;7.03;;;;;;;20.12;78.49;99956.44;5054893;28;20274;-77
2022/09/13 11:40:58;;;;;;;8.13;7.43;;;;;;;20.38;76.44;100032.44;5054719;28;20258;-76
2022/09/13 11:43:41;;;;;;;7.70;7.10;;;;;;;20.43;77.10;100024.19;5054757;28;20262;-76
2022/09/13 11:46:20;;;;;;;8.17;7.47;;;;;;;20.44;77.26;100012.63;5054447;28;20240;-78
2022/09/13 11:49:05;;;;;;;7.37;6.60;;;;;;;20.43;77.39;100001.19;5046469;28;20212;-75